createdAt,value
2019-02-21T00:02:44.374Z,15.07
2019-02-21T00:05:49.512Z,18.53
2019-02-21T00:08:54.747Z,17.27
2019-02-21T00:11:59.929Z,20.07
2019-02-21T00:15:05.399Z,20.13
2019-02-21T00:18:11.608Z,16.10
2019-02-21T00:21:16.774Z,14.70
2019-02-21T00:24:21.937Z,19.03
2019-02-21T00:27:27.090Z,17.90
2019-02-21T00:30:35.307Z,23.77
2019-02-21T00:33:39.055Z,26.10
2019-02-21T00:36:44.214Z,28.67
2019-02-21T00:39:49.327Z,27.17
2019-02-21T00:42:54.481Z,22.73
2019-02-21T00:45:59.653Z,21.13
2019-02-21T00:49:04.791Z,23.13
2019-02-21T00:52:09.931Z,19.73
2019-02-21T00:55:15.051Z,19.30
2019-02-21T00:58:20.199Z,17.80
2019-02-21T01:01:25.533Z,17.17
2019-02-21T01:04:30.697Z,19.70
2019-02-21T01:07:36.932Z,19.67
2019-02-21T01:10:42.113Z,16.37
2019-02-21T01:13:47.423Z,18.27
2019-02-21T01:16:52.481Z,18.20
2019-02-21T01:19:57.650Z,15.90
2019-02-21T01:23:02.844Z,18.17
2019-02-21T01:26:08.083Z,15.53
2019-02-21T01:29:13.222Z,17.73
2019-02-21T01:32:18.352Z,16.80
2019-02-21T01:35:23.470Z,18.93
2019-02-21T01:38:28.661Z,18.00
2019-02-21T01:41:33.898Z,18.67
2019-02-21T01:44:39.116Z,16.47
2019-02-21T01:47:44.287Z,19.33
2019-02-21T01:50:49.414Z,16.67
2019-02-21T01:53:54.549Z,19.90
2019-02-21T01:56:59.802Z,18.13
2019-02-21T02:00:05.831Z,21.57
2019-02-21T02:03:11.092Z,19.00
2019-02-21T02:06:16.319Z,16.17
2019-02-21T02:09:21.935Z,16.10
2019-02-21T02:12:27.100Z,16.07
2019-02-21T02:15:33.827Z,15.03
2019-02-21T02:18:39.332Z,13.53
2019-02-21T02:21:44.561Z,15.77
2019-02-21T02:24:49.730Z,19.30
2019-02-21T02:27:54.914Z,19.10
2019-02-21T02:31:00.103Z,13.83
2019-02-21T02:34:06.474Z,20.50
2019-02-21T02:37:11.625Z,16.50
2019-02-21T02:40:16.941Z,13.37
2019-02-21T02:43:22.219Z,15.87
2019-02-21T02:46:27.468Z,19.17
2019-02-21T02:49:32.640Z,16.07
2019-02-21T02:52:37.923Z,15.77
2019-02-21T02:55:43.081Z,14.47
2019-02-21T02:58:48.312Z,14.50
2019-02-21T03:01:54.575Z,18.03
2019-02-21T03:04:59.717Z,19.37
2019-02-21T03:08:04.913Z,16.43
2019-02-21T03:11:10.438Z,20.00
2019-02-21T03:14:15.669Z,16.47
2019-02-21T03:17:20.885Z,17.30
2019-02-21T03:20:26.069Z,14.80
2019-02-21T03:23:31.315Z,16.77
2019-02-21T03:26:36.577Z,18.63
2019-02-21T03:29:41.751Z,13.13
2019-02-21T03:32:46.896Z,15.63
2019-02-21T03:35:52.052Z,14.77
2019-02-21T03:38:57.273Z,19.50
2019-02-21T03:42:02.452Z,13.73
2019-02-21T03:45:08.876Z,14.57
2019-02-21T03:48:14.100Z,18.37
2019-02-21T03:51:19.320Z,16.97
2019-02-21T03:54:24.504Z,12.37
2019-02-21T03:57:31.158Z,15.47
2019-02-21T04:00:37.310Z,24.17
2019-02-21T04:03:42.562Z,16.47
2019-02-21T04:06:47.768Z,15.70
2019-02-21T04:09:52.949Z,14.07
2019-02-21T04:12:58.084Z,15.97
2019-02-21T04:16:03.326Z,17.63
2019-02-21T04:19:08.511Z,16.27
2019-02-21T04:22:13.698Z,16.10
2019-02-21T04:25:18.996Z,15.20
2019-02-21T04:28:24.178Z,16.30
2019-02-21T04:31:29.325Z,13.50
2019-02-21T04:34:34.448Z,15.27
2019-02-21T04:37:39.594Z,15.37
2019-02-21T04:40:44.814Z,16.67
2019-02-21T04:43:49.954Z,14.87
2019-02-21T04:46:55.258Z,18.13
2019-02-21T04:50:00.630Z,17.57
2019-02-21T04:53:06.091Z,24.50
2019-02-21T04:56:11.277Z,30.50
2019-02-21T04:59:16.392Z,17.57
2019-02-21T05:02:28.864Z,13.53
2019-02-21T05:05:28.516Z,15.13
2019-02-21T05:08:33.696Z,14.23
2019-02-21T05:11:38.796Z,12.63
2019-02-21T05:14:44.023Z,14.13
2019-02-21T05:17:49.186Z,17.17
2019-02-21T05:20:54.418Z,14.63
2019-02-21T05:23:59.555Z,13.33
2019-02-21T05:27:09.495Z,15.73
2019-02-21T05:30:18.589Z,18.23
2019-02-21T05:33:41.431Z,18.30
2019-02-21T05:37:02.727Z,24.33
2019-02-21T05:40:41.975Z,15.20
2019-02-21T05:43:58.643Z,13.90
2019-02-21T05:47:28.892Z,18.57
2019-02-21T05:50:56.070Z,15.20
2019-02-21T05:54:09.127Z,14.53
2019-02-21T05:57:23.818Z,18.00
2019-02-21T06:00:54.024Z,16.63
2019-02-21T06:04:04.738Z,16.50
2019-02-21T06:07:34.721Z,18.37
2019-02-21T06:10:51.568Z,15.60
2019-02-21T06:14:14.380Z,19.37
2019-02-21T06:17:41.301Z,14.50
2019-02-21T06:21:08.459Z,16.13
2019-02-21T06:24:35.336Z,17.47
2019-02-21T06:27:54.841Z,19.83
2019-02-21T06:31:03.119Z,16.53
2019-02-21T06:34:08.257Z,18.37
2019-02-21T06:37:13.416Z,15.47
2019-02-21T06:40:18.587Z,15.93
2019-02-21T06:43:23.744Z,16.33
2019-02-21T06:46:28.968Z,18.27
2019-02-21T06:49:34.086Z,20.83
2019-02-21T06:52:40.690Z,21.47
2019-02-21T06:55:45.979Z,23.10
2019-02-21T06:58:51.116Z,20.73
2019-02-21T07:01:56.256Z,24.93
2019-02-21T07:05:01.377Z,16.83
2019-02-21T07:08:08.838Z,18.83
2019-02-21T07:11:14.162Z,23.43
2019-02-21T07:14:26.538Z,22.00
2019-02-21T07:17:32.648Z,24.23
2019-02-21T07:20:39.736Z,31.63
2019-02-21T07:23:44.711Z,34.57
2019-02-21T07:26:49.890Z,29.20
2019-02-21T07:29:55.349Z,21.77
2019-02-21T07:33:00.509Z,22.23
2019-02-21T07:36:05.782Z,18.57
2019-02-21T07:39:17.172Z,16.47
2019-02-21T07:42:17.747Z,22.50
2019-02-21T07:45:22.899Z,20.27
2019-02-21T07:48:27.989Z,20.27
2019-02-21T07:51:35.841Z,20.60
2019-02-21T07:54:39.984Z,20.47
2019-02-21T07:57:45.213Z,17.17
2019-02-21T08:00:50.394Z,16.00
2019-02-21T08:03:55.546Z,17.47
2019-02-21T08:07:00.689Z,19.83
2019-02-21T08:10:06.067Z,16.90
2019-02-21T08:13:11.250Z,18.37
2019-02-21T08:16:17.306Z,17.73
2019-02-21T08:19:22.390Z,19.03
2019-02-21T08:22:27.557Z,17.20
2019-02-21T08:25:32.666Z,20.20
2019-02-21T08:28:37.879Z,19.43
2019-02-21T08:31:43.104Z,17.83
2019-02-21T08:34:50.570Z,21.13
2019-02-21T08:37:55.709Z,22.27
2019-02-21T08:41:00.892Z,17.30
2019-02-21T08:44:06.053Z,17.00
2019-02-21T08:47:14.286Z,15.30
2019-02-21T08:50:22.101Z,22.07
2019-02-21T08:53:28.127Z,14.67
2019-02-21T08:56:33.187Z,13.03
2019-02-21T08:59:38.335Z,17.03
2019-02-21T09:02:43.458Z,19.77
2019-02-21T09:05:48.564Z,19.53
2019-02-21T09:08:53.844Z,19.13
2019-02-21T09:11:58.998Z,17.37
2019-02-21T09:15:09.562Z,16.63
2019-02-21T09:18:16.344Z,18.77
2019-02-21T09:21:21.455Z,13.30
2019-02-21T09:24:38.039Z,13.73
2019-02-21T09:27:34.489Z,14.53
2019-02-21T09:30:39.631Z,18.27
2019-02-21T09:33:45.857Z,21.87
2019-02-21T09:36:50.963Z,17.73
2019-02-21T09:39:56.097Z,17.63
2019-02-21T09:43:01.374Z,13.40
2019-02-21T09:46:06.725Z,16.97
2019-02-21T09:49:11.918Z,16.50
2019-02-21T09:52:17.099Z,16.73
2019-02-21T09:55:22.350Z,25.07
2019-02-21T09:58:27.472Z,18.90
2019-02-21T10:01:32.679Z,19.53
2019-02-21T10:04:38.095Z,22.40
2019-02-21T10:07:43.314Z,19.77
2019-02-21T10:10:48.403Z,18.33
2019-02-21T10:13:53.544Z,19.17
2019-02-21T10:16:58.703Z,21.73
2019-02-21T10:20:04.294Z,18.37
2019-02-21T10:23:09.722Z,19.17
2019-02-21T10:26:14.849Z,20.97
2019-02-21T10:29:20.471Z,20.70
2019-02-21T10:32:25.640Z,29.93
2019-02-21T10:35:30.857Z,21.57
2019-02-21T10:38:36.059Z,26.43
2019-02-21T10:41:41.223Z,24.87
2019-02-21T10:44:46.396Z,23.98
2019-02-21T10:47:51.538Z,26.87
2019-02-21T10:50:56.818Z,28.63
2019-02-21T10:54:02.110Z,26.37
2019-02-21T10:57:07.185Z,22.67
2019-02-21T11:00:21.357Z,35.37
2019-02-21T11:03:26.613Z,37.30
2019-02-21T11:06:31.852Z,26.60
2019-02-21T11:09:37.034Z,29.70
2019-02-21T11:12:42.247Z,23.23
2019-02-21T11:15:47.370Z,22.23
2019-02-21T11:18:52.492Z,30.97
2019-02-21T11:21:57.683Z,23.20
2019-02-21T11:25:02.856Z,21.37
2019-02-21T11:28:07.978Z,21.53
2019-02-21T11:31:13.065Z,28.13
2019-02-21T11:34:18.230Z,24.57
2019-02-21T11:37:23.417Z,20.87
2019-02-21T11:40:28.567Z,22.40
2019-02-21T11:43:34.723Z,25.47
2019-02-21T11:46:40.008Z,17.70
2019-02-21T11:49:45.236Z,18.47
2019-02-21T11:52:50.388Z,23.60
2019-02-21T11:55:55.532Z,19.83
2019-02-21T11:59:00.725Z,20.83
2019-02-21T12:02:05.904Z,19.17
2019-02-21T12:05:17.496Z,25.77
2019-02-21T12:08:18.157Z,20.90
2019-02-21T12:11:23.252Z,19.13
2019-02-21T12:14:28.442Z,16.93
2019-02-21T12:17:33.553Z,18.77
2019-02-21T12:20:38.712Z,28.07
2019-02-21T12:23:43.922Z,22.43
2019-02-21T12:26:49.157Z,20.57
2019-02-21T12:29:54.258Z,28.43
2019-02-21T12:32:59.431Z,21.13
2019-02-21T12:36:04.593Z,17.47
2019-02-21T12:39:09.751Z,17.57
2019-02-21T12:42:16.431Z,15.30
2019-02-21T12:45:21.703Z,15.70
2019-02-21T12:48:26.899Z,18.90
2019-02-21T12:51:32.050Z,14.97
2019-02-21T12:54:37.163Z,14.03
2019-02-21T12:57:42.340Z,14.60
2019-02-21T13:00:47.596Z,35.27
2019-02-21T13:03:52.750Z,16.27
2019-02-21T13:06:58.027Z,19.20
2019-02-21T13:10:03.220Z,13.43
2019-02-21T13:13:09.564Z,50.23
2019-02-21T13:16:14.724Z,15.50
2019-02-21T13:19:19.840Z,13.57
2019-02-21T13:22:24.958Z,14.73
2019-02-21T13:25:30.136Z,24.07
2019-02-21T13:28:35.369Z,16.03
2019-02-21T13:31:40.502Z,20.77
2019-02-21T13:34:45.682Z,14.60
2019-02-21T13:37:50.855Z,19.43
2019-02-21T13:40:56.002Z,15.47
2019-02-21T13:44:01.185Z,12.40
2019-02-21T13:47:06.520Z,14.83
2019-02-21T13:50:13.866Z,14.80
2019-02-21T13:53:19.016Z,16.13
2019-02-21T13:56:24.202Z,14.63
2019-02-21T13:59:29.455Z,17.40
2019-02-21T14:02:35.614Z,12.93
2019-02-21T14:05:40.808Z,13.67
2019-02-21T14:08:45.989Z,14.07
2019-02-21T14:11:51.177Z,13.80
2019-02-21T14:14:57.528Z,15.17
2019-02-21T14:18:02.808Z,15.97
2019-02-21T14:21:08.022Z,16.37
2019-02-21T14:24:13.260Z,14.87
2019-02-21T14:27:18.667Z,15.73
2019-02-21T14:30:23.812Z,15.63
2019-02-21T14:33:28.988Z,12.23
2019-02-21T14:36:34.130Z,18.27
2019-02-21T14:39:39.332Z,17.10
2019-02-21T14:42:44.472Z,15.03
2019-02-21T14:45:49.696Z,11.87
2019-02-21T14:48:54.875Z,14.40
2019-02-21T14:52:02.014Z,15.07
2019-02-21T14:55:08.597Z,12.00
2019-02-21T14:58:14.751Z,12.87
2019-02-21T15:01:19.904Z,13.33
2019-02-21T15:04:25.030Z,13.53
2019-02-21T15:07:30.201Z,16.20
2019-02-21T15:10:35.342Z,16.87
2019-02-21T15:13:40.533Z,12.63
2019-02-21T15:16:49.305Z,16.03
2019-02-21T15:19:56.123Z,15.00
2019-02-21T15:23:01.331Z,14.47
2019-02-21T15:26:06.645Z,16.73
2019-02-21T15:29:11.748Z,17.43
2019-02-21T15:32:17.020Z,14.50
2019-02-21T15:35:22.192Z,13.83
2019-02-21T15:38:27.359Z,13.83
2019-02-21T15:41:32.668Z,15.37
2019-02-21T15:44:37.809Z,15.57
2019-02-21T15:47:42.956Z,13.67
2019-02-21T15:50:48.110Z,15.43
2019-02-21T15:53:53.265Z,15.37
2019-02-21T15:56:58.482Z,15.67
2019-02-21T16:00:03.664Z,14.13
2019-02-21T16:03:10.167Z,18.00
2019-02-21T16:06:15.296Z,15.70
2019-02-21T16:09:20.533Z,16.37
2019-02-21T16:12:26.095Z,18.57
2019-02-21T16:15:31.375Z,17.27
2019-02-21T16:18:36.660Z,15.87
2019-02-21T16:21:41.910Z,16.93
2019-02-21T16:24:48.073Z,16.97
2019-02-21T16:27:55.226Z,18.13
2019-02-21T16:31:00.241Z,17.67
2019-02-21T16:34:05.385Z,18.83
2019-02-21T16:37:10.571Z,18.13
2019-02-21T16:40:15.733Z,16.87
2019-02-21T16:43:20.850Z,15.03
2019-02-21T16:46:26.016Z,21.27
2019-02-21T16:49:31.161Z,14.60
2019-02-21T16:52:36.898Z,17.27
2019-02-21T16:55:42.144Z,18.17
2019-02-21T16:58:47.374Z,19.90
2019-02-21T17:01:52.635Z,17.00
2019-02-21T17:04:57.866Z,17.50
2019-02-21T17:08:03.086Z,16.20
2019-02-21T17:11:08.296Z,15.03
2019-02-21T17:14:13.476Z,22.37
2019-02-21T17:17:19.946Z,22.60
2019-02-21T17:20:25.206Z,25.17
2019-02-21T17:23:30.347Z,27.77
2019-02-21T17:26:35.608Z,26.20
2019-02-21T17:29:40.813Z,41.00
2019-02-21T17:32:46.344Z,39.37
2019-02-21T17:35:51.521Z,34.90
2019-02-21T17:38:56.664Z,50.27
2019-02-21T17:42:02.578Z,31.63
2019-02-21T17:45:08.744Z,25.70
2019-02-21T17:48:13.975Z,32.03
2019-02-21T17:51:19.127Z,28.80
2019-02-21T17:54:25.937Z,82.90
2019-02-21T17:57:31.376Z,59.03
2019-02-21T18:00:37.538Z,67.77
2019-02-21T18:03:42.869Z,45.37
2019-02-21T18:06:48.107Z,49.90
2019-02-21T18:09:53.291Z,31.67
2019-02-21T18:12:58.460Z,32.60
2019-02-21T18:16:03.623Z,30.43
2019-02-21T18:19:08.804Z,35.30
2019-02-21T18:22:14.026Z,29.63
2019-02-21T18:25:23.087Z,28.97
2019-02-21T18:28:28.339Z,32.57
2019-02-21T18:31:32.728Z,22.73
2019-02-21T18:34:38.028Z,34.63
2019-02-21T18:37:47.323Z,28.53
2019-02-21T18:40:50.149Z,26.47
2019-02-21T18:43:55.757Z,28.63
2019-02-21T18:47:01.019Z,31.13
2019-02-21T18:50:06.700Z,27.30
2019-02-21T18:53:11.849Z,24.07
2019-02-21T18:56:17.117Z,35.20
2019-02-21T18:59:31.340Z,48.57
2019-02-21T19:02:29.126Z,43.57
2019-02-21T19:05:36.239Z,22.67
2019-02-21T19:08:41.215Z,25.90
2019-02-21T19:11:46.386Z,28.03
2019-02-21T19:14:51.718Z,26.00
2019-02-21T19:17:56.866Z,26.90
2019-02-21T19:21:02.100Z,32.13
2019-02-21T19:24:07.259Z,34.07
2019-02-21T19:27:12.445Z,42.23
2019-02-21T19:30:20.897Z,62.50
2019-02-21T19:33:26.143Z,65.67
2019-02-21T19:36:31.296Z,60.23
2019-02-21T19:39:36.497Z,45.50
2019-02-21T19:42:41.732Z,40.83
2019-02-21T19:45:47.014Z,36.33
2019-02-21T19:48:52.213Z,33.43
2019-02-21T19:51:57.536Z,45.10
2019-02-21T19:55:02.805Z,42.17
2019-02-21T19:58:08.035Z,34.90
2019-02-21T20:01:13.263Z,35.63
2019-02-21T20:04:18.396Z,27.50
2019-02-21T20:07:23.777Z,29.00
2019-02-21T20:10:31.332Z,35.60
2019-02-21T20:13:36.637Z,35.27
2019-02-21T20:16:41.958Z,42.80
2019-02-21T20:19:48.089Z,47.43
2019-02-21T20:22:53.350Z,53.67
2019-02-21T20:25:58.779Z,50.13
2019-02-21T20:29:03.964Z,44.83
2019-02-21T20:32:09.208Z,41.47
2019-02-21T20:35:15.163Z,51.00
2019-02-21T20:38:20.486Z,49.00
2019-02-21T20:41:25.712Z,56.97
2019-02-21T20:44:32.150Z,52.77
2019-02-21T20:47:37.416Z,48.83
2019-02-21T20:50:42.683Z,47.50
2019-02-21T20:53:48.949Z,36.60
2019-02-21T20:56:54.135Z,27.77
2019-02-21T21:00:00.416Z,33.17
2019-02-21T21:03:05.979Z,31.10
2019-02-21T21:06:11.210Z,32.97
2019-02-21T21:09:16.449Z,34.30
2019-02-21T21:12:21.706Z,37.70
2019-02-21T21:15:26.977Z,38.10
2019-02-21T21:18:32.131Z,40.73
2019-02-21T21:21:37.300Z,45.37
2019-02-21T21:24:42.526Z,41.57
2019-02-21T21:27:47.780Z,46.67
2019-02-21T21:30:52.989Z,41.23
2019-02-21T21:33:58.144Z,39.83
2019-02-21T21:37:03.361Z,33.73
2019-02-21T21:40:10.559Z,35.40
2019-02-21T21:43:15.814Z,32.90
2019-02-21T21:46:21.050Z,26.17
2019-02-21T21:49:26.229Z,29.30
2019-02-21T21:52:31.462Z,29.87
2019-02-21T21:55:36.671Z,28.80
2019-02-21T21:58:41.848Z,28.70
2019-02-21T22:01:50.118Z,26.43
2019-02-21T22:04:55.272Z,33.87
2019-02-21T22:08:00.419Z,36.27
2019-02-21T22:11:06.583Z,34.00
2019-02-21T22:14:11.780Z,30.93
2019-02-21T22:17:16.957Z,45.73
2019-02-21T22:20:22.177Z,43.70
2019-02-21T22:23:27.327Z,33.90
2019-02-21T22:26:32.575Z,33.90
2019-02-21T22:29:37.698Z,33.17
2019-02-21T22:32:42.973Z,33.67
2019-02-21T22:35:48.310Z,31.00
2019-02-21T22:38:53.364Z,29.67
2019-02-21T22:41:58.825Z,30.53
2019-02-21T22:45:05.763Z,34.80
2019-02-21T22:48:10.989Z,33.70
2019-02-21T22:51:16.145Z,33.67
2019-02-21T22:54:21.362Z,34.07
2019-02-21T22:57:26.639Z,33.03
2019-02-21T23:01:04.879Z,34.20
2019-02-21T23:04:44.108Z,29.00
2019-02-21T23:08:11.532Z,31.30
2019-02-21T23:11:16.687Z,32.67
2019-02-21T23:14:21.977Z,29.63
2019-02-21T23:17:27.237Z,32.30
2019-02-21T23:20:32.397Z,36.33
2019-02-21T23:23:37.629Z,34.93
2019-02-21T23:26:42.891Z,39.13
2019-02-21T23:29:48.127Z,34.90
2019-02-21T23:32:53.353Z,31.70
2019-02-21T23:35:58.527Z,32.27
2019-02-21T23:39:04.284Z,30.53
2019-02-21T23:42:11.043Z,34.73
2019-02-21T23:45:17.667Z,33.33
2019-02-21T23:48:22.822Z,36.80
2019-02-21T23:51:30.234Z,35.03
2019-02-21T23:54:35.486Z,35.30
2019-02-21T23:57:40.625Z,43.03
